Time;durP1;ratioP1;P1;durP2;ratioP2;P2;SDS_P1;SDS_P2;PMS_P1;PMS_P2;Temp;Humidity;BMP_temperature;BMP_pressure;BME280_temperature;BME280_humidity;BME280_pressure;Samples;Min_cycle;Max_cycle;Signal;HPM_P1;HPM_P2
2023/09/28 00:02:48;;;;;;;4.97;3.75;;;;;;;;;;5074300;28;20047;-75
2023/09/28 00:05:15;;;;;;;4.60;3.65;;;;;;;;;;5074821;28;20036;-74
2023/09/28 00:07:43;;;;;;;4.75;3.58;;;23.30;71.70;;;;;;5074426;28;20483;-74
2023/09/28 00:10:11;;;;;;;3.67;3.38;;;23.30;71.80;;;;;;5074597;28;20453;-75
2023/09/28 00:12:42;;;;;;;3.60;3.20;;;23.30;65.90;;;;;;5074247;28;20029;-75
2023/09/28 00:15:10;;;;;;;3.85;3.22;;;23.20;71.50;;;;;;5074446;28;20043;-75
2023/09/28 00:17:40;;;;;;;4.80;3.28;;;23.30;66.10;;;;;;5074241;28;20017;-75
2023/09/28 00:20:17;;;;;;;4.30;3.35;;;23.30;72.00;;;;;;5074480;28;20146;-75
2023/09/28 00:22:44;;;;;;;3.92;3.00;;;23.30;71.70;;;;;;5074068;28;20024;-75
2023/09/28 00:25:11;;;;;;;4.22;3.55;;;;;;;;;;5073390;28;20039;-74
2023/09/28 00:27:45;;;;;;;3.85;3.45;;;23.30;71.60;;;;;;5074880;28;20032;-75
2023/09/28 00:30:29;;;;;;;3.92;3.50;;;;;;;;;;5072494;28;20033;-75
2023/09/28 00:32:56;;;;;;;4.00;3.05;;;23.30;71.90;;;;;;5073832;28;20028;-75
2023/09/28 00:35:23;;;;;;;3.78;3.40;;;23.20;69.30;;;;;;5074056;28;20030;-74
2023/09/28 00:37:50;;;;;;;3.80;3.05;;;;;;;;;;5074171;28;20023;-74
2023/09/28 00:40:19;;;;;;;4.68;3.90;;;23.20;68.90;;;;;;5073707;28;20432;-73
2023/09/28 00:42:52;;;;;;;3.38;3.08;;;23.20;71.80;;;;;;5073665;28;20109;-73
2023/09/28 00:45:35;;;;;;;4.53;3.42;;;;;;;;;;5072049;28;20483;-74
2023/09/28 00:48:03;;;;;;;3.20;2.90;;;23.20;71.40;;;;;;5073553;28;20029;-74
2023/09/28 00:50:33;;;;;;;3.90;3.50;;;;;;;;;;5073778;28;20420;-73
2023/09/28 00:53:16;;;;;;;3.53;3.13;;;;;;;;;;5071840;28;20118;-73
2023/09/28 00:55:44;;;;;;;3.38;2.90;;;23.10;69.80;;;;;;5056200;28;20098;-73
2023/09/28 00:58:11;;;;;;;3.75;3.30;;;;;;;;;;5073352;28;20030;-73
2023/09/28 01:00:40;;;;;;;4.75;3.38;;;;;;;;;;5073267;28;20033;-73
2023/09/28 01:03:07;;;;;;;4.45;3.17;;;;;;;;;;5073073;28;20059;-73
2023/09/28 01:05:38;;;;;;;4.28;2.88;;;23.10;70.10;;;;;;5073196;28;20024;-73
2023/09/28 01:08:09;;;;;;;4.32;2.97;;;23.10;71.80;;;;;;5073663;28;20031;-73
2023/09/28 01:10:36;;;;;;;3.50;3.20;;;;;;;;;;5073478;28;20016;-73
2023/09/28 01:13:20;;;;;;;3.17;2.88;;;23.10;66.10;;;;;;5073286;28;20037;-73
2023/09/28 01:15:47;;;;;;;3.67;3.17;;;;;;;;;;5073118;28;20167;-73
2023/09/28 01:18:15;;;;;;;4.00;2.72;;;23.10;71.80;;;;;;5072980;28;20033;-73
2023/09/28 01:20:46;;;;;;;3.10;2.58;;;23.10;71.20;;;;;;5073127;28;20017;-73
2023/09/28 01:23:32;;;;;;;;;;;23.10;72.30;;;;;;5073595;28;20039;-73
2023/09/28 01:26:18;;;;;;;4.05;2.92;;;;;;;;;;5072705;28;19908;-73
2023/09/28 01:29:05;;;;;;;3.53;2.97;;;;;;;;;;5072662;28;20109;-73
2023/09/28 01:31:50;;;;;;;4.18;2.95;;;;;;;;;;5072502;28;20034;-73
2023/09/28 01:34:36;;;;;;;3.65;2.88;;;;;;;;;;5072028;28;20502;-73
2023/09/28 01:37:31;;;;;;;3.38;2.80;;;23.10;72.10;;;;;;5057259;28;20035;-73
2023/09/28 01:40:17;;;;;;;4.68;3.15;;;;;;;;;;5072422;28;20123;-73
2023/09/28 01:43:03;;;;;;;2.65;2.45;;;;;;;;;;5072314;28;20036;-72
2023/09/28 01:45:49;;;;;;;2.75;2.50;;;;;;;;;;5072323;28;20139;-72
2023/09/28 01:48:35;;;;;;;3.22;2.70;;;;;;;;;;5072233;28;20111;-73
2023/09/28 01:51:22;;;;;;;2.85;2.45;;;;;;;;;;5072060;28;20036;-72
2023/09/28 01:54:07;;;;;;;3.83;2.63;;;;;;;;;;5072422;28;20518;-74
2023/09/28 01:56:53;;;;;;;2.95;2.65;;;;;;;;;;5072025;28;20025;-73
2023/09/28 01:59:39;;;;;;;2.90;2.45;;;;;;;;;;5072040;28;20036;-73
2023/09/28 02:02:25;;;;;;;3.35;2.60;;;;;;;;;;5071674;28;20162;-73
2023/09/28 02:05:11;;;;;;;3.03;2.72;;;;;;;;;;5072115;28;20036;-73
2023/09/28 02:07:38;;;;;;;3.00;2.35;;;;;;;;;;5072003;28;20024;-74
2023/09/28 02:10:05;;;;;;;3.53;2.85;;;;;;;;;;5072268;28;20032;-74
2023/09/28 02:12:32;;;;;;;3.53;2.47;;;;;;;;;;5072136;28;20043;-73
2023/09/28 02:15:03;;;;;;;3.58;2.63;;;23.00;66.30;;;;;;5071957;28;20121;-73
2023/09/28 02:17:30;;;;;;;2.85;2.65;;;;;;;;;;5071892;28;20032;-73
2023/09/28 02:19:57;;;;;;;3.22;2.60;;;;;;;;;;5054286;28;20090;-74
2023/09/28 02:22:23;;;;;;;4.88;2.40;;;;;;;;;;5054639;28;20029;-73
2023/09/28 02:24:51;;;;;;;2.55;2.25;;;;;;;;;;5054341;28;20029;-73
2023/09/28 02:27:17;;;;;;;2.85;2.42;;;22.90;69.20;;;;;;5054464;28;20037;-74
2023/09/28 02:29:44;;;;;;;2.78;2.40;;;22.90;71.20;;;;;;5054207;28;20045;-73
2023/09/28 02:32:13;;;;;;;3.08;2.38;;;22.90;72.00;;;;;;5054417;28;20395;-74
2023/09/28 02:34:40;;;;;;;3.05;2.67;;;;;;;;;;5053886;28;20044;-74
2023/09/28 02:37:07;;;;;;;3.00;2.50;;;;;;;;;;5053964;28;20623;-73
2023/09/28 02:39:35;;;;;;;3.20;2.22;;;22.90;71.60;;;;;;5071634;28;20103;-73
2023/09/28 02:42:07;;;;;;;2.53;2.33;;;;;;;;;;5071601;28;20027;-73
2023/09/28 02:44:33;;;;;;;4.53;2.70;;;;;;;;;;5071784;28;20025;-73
2023/09/28 02:46:59;;;;;;;3.50;2.30;;;;;;;;;;5071067;28;20115;-75
2023/09/28 02:49:27;;;;;;;3.58;2.40;;;;;;;;;;5072123;28;20100;-73
2023/09/28 02:51:54;;;;;;;2.40;2.20;;;;;;;;;;5071804;28;20037;-73
2023/09/28 02:54:20;;;;;;;2.95;2.30;;;;;;;;;;5071539;28;20039;-73
2023/09/28 02:56:49;;;;;;;2.63;2.33;;;;;;;;;;5071848;28;20051;-74
2023/09/28 02:59:17;;;;;;;3.47;2.20;;;;;;;;;;5071532;28;20036;-74
2023/09/28 03:01:44;;;;;;;2.47;2.10;;;;;;;;;;5071791;28;20032;-74
2023/09/28 03:04:11;;;;;;;2.78;2.13;;;;;;;;;;5071423;28;20601;-74
2023/09/28 03:06:40;;;;;;;2.53;2.33;;;22.90;66.30;;;;;;5071406;28;20462;-74
2023/09/28 03:09:08;;;;;;;2.20;2.00;;;;;;;;;;5071465;28;20064;-73
2023/09/28 03:11:35;;;;;;;2.75;2.22;;;;;;;;;;5071485;28;20025;-74
2023/09/28 03:14:03;;;;;;;2.88;2.20;;;22.70;72.30;;;;;;5071281;28;20445;-74
2023/09/28 03:16:29;;;;;;;2.70;2.38;;;;;;;;;;5071372;28;20051;-74
2023/09/28 03:18:57;;;;;;;3.13;1.92;;;22.80;72.00;;;;;;5072103;28;20143;-74
2023/09/28 03:21:23;;;;;;;2.75;1.92;;;;;;;;;;5071624;28;20029;-74
2023/09/28 03:23:51;;;;;;;2.97;2.20;;;;;;;;;;5071212;28;20028;-74
2023/09/28 03:26:17;;;;;;;2.30;1.75;;;;;;;;;;5071229;28;20415;-74
2023/09/28 03:28:44;;;;;;;2.78;2.00;;;;;;;;;;5071245;28;20028;-73
2023/09/28 03:31:11;;;;;;;3.03;2.47;;;;;;;;;;5071433;28;20021;-74
2023/09/28 03:33:38;;;;;;;2.50;2.17;;;;;;;;;;5071118;28;20779;-74
2023/09/28 03:36:05;;;;;;;2.50;1.83;;;;;;;;;;5071451;28;20028;-74
2023/09/28 03:38:31;;;;;;;3.28;2.65;;;;;;;;;;5071475;28;20052;-74
2023/09/28 03:40:58;;;;;;;3.03;2.72;;;22.80;71.20;;;;;;5071263;28;20024;-74
2023/09/28 03:43:24;;;;;;;3.60;2.70;;;;;;;;;;5071447;28;20070;-74
2023/09/28 03:45:51;;;;;;;3.67;3.10;;;;;;;;;;5071733;28;20076;-74
2023/09/28 03:48:18;;;;;;;4.70;3.95;;;;;;;;;;5070497;28;20434;-74
2023/09/28 03:50:44;;;;;;;4.05;3.63;;;;;;;;;;5070921;28;20025;-73
2023/09/28 03:53:11;;;;;;;6.88;6.22;;;;;;;;;;5070960;28;20336;-73
2023/09/28 03:55:37;;;;;;;6.40;5.80;;;;;;;;;;5071151;28;20032;-73
2023/09/28 03:58:04;;;;;;;7.15;6.50;;;;;;;;;;5071005;28;20414;-73
2023/09/28 04:00:30;;;;;;;8.95;8.18;;;;;;;;;;5074480;28;20362;-73
2023/09/28 04:02:57;;;;;;;11.68;10.68;;;;;;;;;;5074192;28;20060;-74
2023/09/28 04:05:24;;;;;;;11.93;10.68;;;;;;;;;;5074694;28;20048;-73
2023/09/28 04:07:51;;;;;;;14.57;13.18;;;;;;;;;;5074352;28;20647;-73
2023/09/28 04:10:17;;;;;;;15.93;14.40;;;;;;;;;;5074627;28;20021;-73
2023/09/28 04:12:44;;;;;;;17.45;15.95;;;;;;;;;;5074182;28;20025;-73
2023/09/28 04:15:11;;;;;;;19.83;17.77;;;;;;;;;;5074689;28;20043;-72
2023/09/28 04:17:38;;;;;;;22.00;20.15;;;;;;;;;;5074221;28;20035;-72
2023/09/28 04:20:09;;;;;;;24.17;22.02;;;;;;;;;;5074133;28;20398;-73
2023/09/28 04:22:35;;;;;;;25.13;22.73;;;;;;;;;;5074096;28;20028;-72
2023/09/28 04:25:01;;;;;;;25.98;23.70;;;;;;;;;;5073990;28;20176;-73
2023/09/28 04:27:28;;;;;;;26.73;24.33;;;;;;;;;;5074094;28;20070;-73
2023/09/28 04:29:54;;;;;;;27.45;24.85;;;;;;;;;;5074375;28;20040;-73
2023/09/28 04:32:20;;;;;;;28.25;25.48;;;;;;;;;;5073878;28;20048;-73
2023/09/28 04:34:46;;;;;;;28.85;26.05;;;;;;;;;;5073927;28;20036;-73
2023/09/28 04:37:12;;;;;;;28.40;25.60;;;;;;;;;;5073795;28;20025;-74
2023/09/28 04:39:38;;;;;;;29.00;26.25;;;;;;;;;;5073920;28;20086;-73
2023/09/28 04:42:05;;;;;;;28.30;25.60;;;;;;;;;;5073981;28;20016;-73
2023/09/28 04:44:31;;;;;;;26.60;24.08;;;;;;;;;;5073755;28;20598;-73
2023/09/28 04:46:57;;;;;;;27.35;24.65;;;;;;;;;;5073945;28;20493;-73
2023/09/28 04:49:23;;;;;;;25.02;22.65;;;;;;;;;;5073571;28;20037;-73
2023/09/28 04:51:51;;;;;;;24.90;22.55;;;;;;;;;;5073536;28;20490;-73
2023/09/28 04:54:18;;;;;;;25.48;23.00;;;;;;;;;;5073449;28;20530;-73
2023/09/28 04:56:45;;;;;;;24.63;22.42;;;;;;;;;;5073692;28;20394;-73
2023/09/28 04:59:12;;;;;;;23.35;21.02;;;;;;;;;;5073442;28;20078;-73
2023/09/28 05:01:38;;;;;;;23.60;21.15;;;;;;;;;;5073774;28;20053;-73
2023/09/28 05:04:05;;;;;;;21.35;19.33;;;;;;;;;;5073197;28;20068;-73
2023/09/28 05:06:31;;;;;;;21.90;19.60;;;;;;;;;;5073423;28;20043;-73
2023/09/28 05:08:58;;;;;;;20.88;18.77;;;;;;;;;;5073562;28;20426;-73
2023/09/28 05:11:24;;;;;;;19.48;17.35;;;;;;;;;;5072811;28;20028;-73
2023/09/28 05:13:51;;;;;;;19.23;17.10;;;;;;;;;;5073403;28;20040;-73
2023/09/28 05:16:18;;;;;;;19.45;16.77;;;;;;;;;;5073057;28;20029;-73
2023/09/28 05:18:44;;;;;;;18.27;16.38;;;;;;;;;;5073152;28;20029;-73
2023/09/28 05:21:11;;;;;;;18.08;16.27;;;;;;;;;;5073232;28;20024;-73
2023/09/28 05:23:37;;;;;;;17.10;15.30;;;;;;;;;;5073166;28;20476;-74
2023/09/28 05:26:04;;;;;;;16.38;14.55;;;22.50;71.10;;;;;;5073037;28;20028;-74
2023/09/28 05:28:30;;;;;;;17.25;14.05;;;;;;;;;;5072717;28;20099;-74
2023/09/28 05:30:57;;;;;;;14.23;12.73;;;;;;;;;;5073405;28;20034;-74
2023/09/28 05:33:23;;;;;;;17.45;13.07;;;;;;;;;;5072918;28;20065;-75
2023/09/28 05:35:49;;;;;;;14.18;12.43;;;;;;;;;;5072722;28;20515;-75
2023/09/28 05:38:15;;;;;;;16.20;12.13;;;;;;;;;;5072712;28;20071;-72
2023/09/28 05:40:42;;;;;;;13.23;11.45;;;;;;;;;;5072959;28;20023;-74
2023/09/28 05:43:08;;;;;;;15.80;10.57;;;;;;;;;;5072779;28;20112;-73
2023/09/28 05:45:34;;;;;;;13.65;10.18;;;;;;;;;;5072556;28;20025;-74
2023/09/28 05:48:01;;;;;;;13.02;9.77;;;;;;;;;;5072575;28;20025;-73
2023/09/28 05:50:27;;;;;;;12.90;8.63;;;;;;;;;;5072284;28;20032;-73
2023/09/28 05:52:56;;;;;;;11.40;8.13;;;;;;;;;;5072538;28;20025;-74
2023/09/28 05:55:24;;;;;;;10.15;7.65;;;;;;;;;;5072384;28;20060;-73
2023/09/28 05:57:54;;;;;;;9.73;7.55;;;22.40;72.20;;;;;;5072490;28;20028;-72
2023/09/28 06:00:20;;;;;;;10.82;7.53;;;;;;;;;;5072641;28;20505;-72
2023/09/28 06:02:47;;;;;;;10.10;6.95;;;;;;;;;;5071954;28;20067;-74
2023/09/28 06:05:13;;;;;;;9.13;6.90;;;;;;;;;;5072404;28;20398;-74
2023/09/28 06:07:40;;;;;;;10.82;6.75;;;;;;;;;;5072243;28;20028;-73
2023/09/28 06:10:08;;;;;;;8.75;6.03;;;;;;;;;;5072044;28;20112;-75
2023/09/28 06:12:35;;;;;;;9.65;6.60;;;;;;;;;;5072331;28;20119;-75
2023/09/28 06:15:02;;;;;;;8.60;5.63;;;22.30;72.00;;;;;;5071860;28;20483;-75
2023/09/28 06:17:29;;;;;;;7.00;5.13;;;;;;;;;;5072334;28;20063;-75
2023/09/28 06:19:55;;;;;;;9.60;5.80;;;;;;;;;;5072298;28;20025;-77
2023/09/28 06:22:22;;;;;;;9.18;5.15;;;;;;;;;;5071478;28;20360;-77
2023/09/28 06:24:48;;;;;;;8.98;4.47;;;;;;;;;;5072218;28;20036;-76
2023/09/28 06:27:15;;;;;;;10.27;4.55;;;;;;;;;;5072751;28;20036;-75
2023/09/28 06:29:41;;;;;;;9.10;4.00;;;;;;;;;;5071780;28;20143;-76
2023/09/28 06:32:07;;;;;;;9.65;4.18;;;;;;;;;;5071846;28;20115;-74
2023/09/28 06:34:33;;;;;;;9.13;3.65;;;;;;;;;;5071713;28;20040;-76
2023/09/28 06:36:59;;;;;;;10.55;3.70;;;;;;;;;;5072028;28;20035;-74
2023/09/28 06:39:25;;;;;;;14.70;4.32;;;;;;;;;;5071963;28;20107;-74
2023/09/28 06:41:51;;;;;;;13.70;3.72;;;;;;;;;;5071785;28;20038;-74
2023/09/28 06:44:17;;;;;;;14.18;3.45;;;;;;;;;;5071725;28;20036;-73
2023/09/28 06:46:44;;;;;;;16.08;4.13;;;;;;;;;;5071504;28;20398;-73
2023/09/28 06:49:11;;;;;;;14.77;3.63;;;22.10;71.80;;;;;;5071876;28;20025;-74
2023/09/28 06:51:37;;;;;;;12.45;3.78;;;;;;;;;;5071712;28;20040;-73
2023/09/28 06:54:04;;;;;;;12.95;3.45;;;;;;;;;;5071691;28;20033;-76
2023/09/28 06:56:30;;;;;;;14.25;3.15;;;;;;;;;;5072409;28;20028;-79
2023/09/28 06:58:56;;;;;;;13.23;3.40;;;;;;;;;;5071368;28;20158;-74
2023/09/28 07:01:22;;;;;;;16.08;3.58;;;;;;;;;;5071694;28;20398;-74
2023/09/28 07:03:52;;;;;;;11.10;3.10;;;;;;;;;;5071289;28;20109;-74
2023/09/28 07:06:18;;;;;;;13.88;2.72;;;;;;;;;;5071316;28;20024;-74
2023/09/28 07:08:44;;;;;;;16.58;3.63;;;;;;;;;;5071406;28;20037;-74
2023/09/28 07:11:10;;;;;;;19.33;4.10;;;;;;;;;;5071366;28;20028;-74
2023/09/28 07:13:37;;;;;;;15.75;3.58;;;;;;;;;;5070663;28;20036;-76
2023/09/28 07:16:03;;;;;;;15.43;3.50;;;;;;;;;;5070812;28;20034;-74
2023/09/28 07:18:30;;;;;;;14.15;4.05;;;;;;;;;;5071035;28;20025;-73
2023/09/28 07:20:56;;;;;;;12.38;3.60;;;;;;;;;;5070904;28;20070;-74
2023/09/28 07:23:23;;;;;;;16.90;3.17;;;;;;;;;;5070823;28;20028;-74
2023/09/28 07:25:51;;;;;;;13.07;3.30;;;;;;;;;;5070897;28;20032;-75
2023/09/28 07:28:17;;;;;;;12.88;3.53;;;;;;;;;;5071226;28;20035;-74
2023/09/28 07:30:44;;;;;;;8.48;2.80;;;;;;;;;;5053447;28;20038;-74
2023/09/28 07:33:13;;;;;;;12.77;3.33;;;;;;;;;;5054546;28;20044;-73
2023/09/28 07:35:40;;;;;;;12.82;2.78;;;22.10;71.00;;;;;;5057677;28;20108;-74
2023/09/28 07:38:06;;;;;;;17.27;4.07;;;;;;;;;;5057105;28;20040;-73
2023/09/28 07:40:32;;;;;;;13.57;2.88;;;;;;;;;;5057202;28;20395;-73
2023/09/28 07:42:59;;;;;;;16.42;3.50;;;;;;;;;;5057755;28;20060;-74
2023/09/28 07:45:25;;;;;;;12.80;3.00;;;;;;;;;;5074941;28;20043;-74
2023/09/28 07:47:52;;;;;;;15.05;3.70;;;;;;;;;;5074867;28;20025;-74
2023/09/28 07:50:18;;;;;;;13.70;3.33;;;;;;;;;;5074822;28;20029;-74
2023/09/28 07:52:45;;;;;;;15.43;3.17;;;;;;;;;;5074693;28;20028;-74
2023/09/28 07:55:13;;;;;;;17.45;3.15;;;;;;;;;;5074806;28;20402;-74
2023/09/28 07:57:39;;;;;;;11.35;2.60;;;;;;;;;;5074744;28;20364;-74
2023/09/28 08:00:06;;;;;;;14.43;3.10;;;;;;;;;;5074560;28;20406;-74
2023/09/28 08:02:33;;;;;;;13.82;3.45;;;;;;;;;;5074240;28;21075;-74
2023/09/28 08:05:01;;;;;;;13.00;3.10;;;;;;;;;;5074304;28;20037;-74
2023/09/28 08:07:30;;;;;;;7.65;2.75;;;;;;;;;;5074666;28;20029;-74
2023/09/28 08:09:57;;;;;;;11.02;2.83;;;;;;;;;;5074121;28;20490;-74
2023/09/28 08:12:23;;;;;;;12.70;2.70;;;;;;;;;;5074479;28;20410;-73
2023/09/28 08:14:49;;;;;;;9.75;2.45;;;;;;;;;;5073870;28;20549;-74
2023/09/28 08:17:16;;;;;;;12.35;3.05;;;;;;;;;;5074124;28;20024;-74
2023/09/28 08:19:43;;;;;;;12.85;3.40;;;;;;;;;;5073937;28;20126;-74
2023/09/28 08:22:10;;;;;;;9.48;2.00;;;;;;;;;;5074290;28;20036;-73
2023/09/28 08:24:37;;;;;;;10.90;2.75;;;;;;;;;;5073842;28;20020;-74
2023/09/28 08:27:04;;;;;;;11.10;3.00;;;;;;;;;;5073811;28;20025;-74
2023/09/28 08:29:30;;;;;;;10.25;2.83;;;;;;;;;;5073946;28;20097;-74
2023/09/28 08:31:57;;;;;;;10.25;2.90;;;;;;;;;;5073888;28;20418;-74
2023/09/28 08:34:23;;;;;;;10.70;2.90;;;;;;;;;;5073688;28;20036;-74
2023/09/28 08:36:50;;;;;;;10.55;2.85;;;;;;;;;;5073778;28;20021;-74
2023/09/28 08:39:16;;;;;;;8.85;2.65;;;;;;;;;;5073908;28;20052;-78
2023/09/28 08:41:44;;;;;;;6.50;2.33;;;21.60;72.00;;;;;;5073772;28;20023;-74
2023/09/28 08:44:11;;;;;;;11.27;3.13;;;22.10;72.00;;;;;;5073469;28;20039;-76
2023/09/28 08:46:38;;;;;;;11.00;2.47;;;;;;;;;;5074122;28;20174;-83
2023/09/28 08:49:08;;;;;;;14.80;3.17;;;22.10;66.70;;;;;;5074460;28;20115;-86
2023/09/28 08:51:36;;;;;;;7.05;1.75;;;22.10;70.10;;;;;;5076822;28;20368;-75
2023/09/28 08:54:05;;;;;;;10.43;2.90;;;22.10;70.70;;;;;;5073649;28;20043;-77
2023/09/28 08:56:39;;;;;;;11.95;3.17;;;22.10;67.00;;;;;;5073373;28;20025;-74
2023/09/28 08:59:05;;;;;;;8.63;2.83;;;22.10;70.90;;;;;;5055342;28;20514;-73
2023/09/28 09:01:34;;;;;;;9.30;3.10;;;22.30;66.70;;;;;;5038687;28;20437;-73
2023/09/28 09:04:01;;;;;;;9.48;3.10;;;;;;;;;;5073021;28;20487;-74
2023/09/28 09:06:31;;;;;;;13.63;3.58;;;22.20;66.50;;;;;;5055283;28;20037;-73
2023/09/28 09:09:01;;;;;;;;;;;22.10;73.00;;;;;;5055943;28;20107;-73
2023/09/28 09:11:33;;;;;;;14.65;3.58;;;22.20;72.20;;;;;;5071679;28;19908;-73
2023/09/28 09:13:59;;;;;;;13.70;3.08;;;;;;;;;;5055126;28;20113;-74
2023/09/28 09:16:30;;;;;;;17.98;3.35;;;22.20;66.50;;;;;;5055658;28;20040;-74
2023/09/28 09:18:56;;;;;;;9.27;3.17;;;22.20;69.60;;;;;;5055258;28;20032;-74
2023/09/28 09:21:23;;;;;;;18.00;4.45;;;22.30;71.60;;;;;;5055069;28;20052;-74
2023/09/28 09:24:02;;;;;;;10.68;2.97;;;22.20;67.00;;;;;;5055056;28;20451;-74
2023/09/28 09:26:29;;;;;;;12.88;3.10;;;;;;;;;;5072820;28;20167;-75
2023/09/28 09:29:00;;;;;;;12.48;3.45;;;22.20;66.50;;;;;;5055419;28;20344;-74
2023/09/28 09:31:27;;;;;;;13.48;2.50;;;;;;;;;;5055472;28;20033;-74
2023/09/28 09:33:53;;;;;;;11.10;2.88;;;;;;;;;;5054980;28;20040;-74
2023/09/28 09:36:19;;;;;;;12.60;3.28;;;;;;;;;;5055177;28;20504;-74
2023/09/28 09:38:47;;;;;;;12.73;3.70;;;;;;;;;;5072889;28;20045;-74
2023/09/28 09:41:13;;;;;;;12.20;2.60;;;;;;;;;;5055297;28;20429;-74
2023/09/28 09:43:41;;;;;;;11.55;3.00;;;22.30;72.30;;;;;;5055003;28;20025;-73
2023/09/28 09:46:09;;;;;;;14.43;3.17;;;22.40;72.40;;;;;;5055054;28;20035;-73
2023/09/28 09:48:41;;;;;;;14.02;3.85;;;22.30;66.50;;;;;;5054518;28;20024;-73
2023/09/28 09:51:12;;;;;;;10.45;3.15;;;22.40;66.40;;;;;;5054543;28;20029;-73
2023/09/28 09:53:46;;;;;;;12.23;3.22;;;22.40;66.50;;;;;;5072108;28;20086;-73
2023/09/28 09:56:15;;;;;;;10.32;3.08;;;22.40;72.20;;;;;;5054013;28;20040;-74
2023/09/28 09:58:42;;;;;;;11.32;3.00;;;22.40;72.20;;;;;;5054532;28;20039;-73
2023/09/28 10:01:12;;;;;;;8.38;2.95;;;22.40;66.40;;;;;;5072066;28;20036;-75
2023/09/28 10:03:44;;;;;;;9.07;2.38;;;22.40;72.10;;;;;;5037502;28;20601;-73
2023/09/28 10:06:12;;;;;;;9.98;2.78;;;;;;;;;;5054918;28;20089;-72
2023/09/28 10:08:39;;;;;;;9.85;3.10;;;;;;;;;;5054647;28;20037;-72
2023/09/28 10:11:05;;;;;;;9.38;2.47;;;;;;;;;;5054641;28;20441;-73
2023/09/28 10:13:32;;;;;;;10.10;3.08;;;;;;;;;;5054713;28;20178;-75
2023/09/28 10:16:04;;;;;;;12.68;2.90;;;22.60;72.30;;;;;;5054615;28;20078;-72
2023/09/28 10:18:33;;;;;;;12.10;3.22;;;22.50;72.60;;;;;;5054030;28;20037;-76
2023/09/28 10:21:00;;;;;;;8.10;2.67;;;;;;;;;;5054255;28;20505;-75
2023/09/28 10:23:28;;;;;;;15.13;2.70;;;22.60;69.80;;;;;;5054584;28;20032;-74
2023/09/28 10:25:59;;;;;;;14.35;3.28;;;22.50;66.50;;;;;;5038230;28;20025;-75
2023/09/28 10:28:26;;;;;;;9.25;2.83;;;22.60;70.00;;;;;;5071827;28;20024;-73
2023/09/28 10:31:04;;;;;;;10.23;2.90;;;22.50;66.40;;;;;;5053936;28;20037;-73
2023/09/28 10:33:32;;;;;;;12.30;3.10;;;22.60;70.20;;;;;;5071871;28;20067;-72
2023/09/28 10:36:14;;;;;;;19.52;3.30;;;22.30;66.90;;;;;;5053841;28;20032;-73
2023/09/28 10:38:41;;;;;;;16.55;3.63;;;22.60;71.90;;;;;;5053824;28;20024;-72
2023/09/28 10:41:08;;;;;;;14.63;3.22;;;;;;;;;;5054074;28;20356;-75
2023/09/28 10:43:43;;;;;;;17.60;3.28;;;22.50;71.80;;;;;;5053954;28;20056;-76
2023/09/28 10:46:10;;;;;;;15.20;4.25;;;;;;;;;;5054125;28;20025;-72
2023/09/28 10:48:40;;;;;;;17.55;3.35;;;22.50;65.60;;;;;;5071534;28;20123;-73
2023/09/28 10:51:11;;;;;;;;;;;22.60;72.20;;;;;;5071885;28;20028;-74
2023/09/28 10:53:37;;;;;;;11.98;2.90;;;;;;;;;;5071293;28;19916;-71
2023/09/28 10:56:06;;;;;;;15.35;3.45;;;22.50;71.20;;;;;;5071730;28;20040;-72
2023/09/28 10:58:37;;;;;;;18.02;3.72;;;22.60;70.80;;;;;;5053759;28;20094;-71
2023/09/28 11:01:04;;;;;;;15.98;3.33;;;22.60;68.70;;;;;;5053562;28;20025;-71
2023/09/28 11:03:32;;;;;;;14.90;3.72;;;;;;;;;;5049956;28;20049;-76
2023/09/28 11:06:00;;;;;;;13.50;3.17;;;22.60;71.20;;;;;;5051258;28;20041;-74
2023/09/28 11:08:27;;;;;;;13.45;3.03;;;;;;;;;;5052132;28;20033;-74
2023/09/28 11:10:55;;;;;;;20.00;3.83;;;;;;;;;;5055743;28;20037;-74
2023/09/28 11:13:22;;;;;;;19.10;3.33;;;;;;;;;;5054450;28;20051;-74
2023/09/28 11:15:49;;;;;;;10.75;2.88;;;;;;;;;;5054102;28;20395;-74
2023/09/28 11:18:18;;;;;;;13.18;3.30;;;22.70;70.40;;;;;;5054329;28;20441;-74
2023/09/28 11:20:44;;;;;;;10.70;2.90;;;;;;;;;;5054365;28;20028;-74
2023/09/28 11:23:11;;;;;;;11.88;2.65;;;;;;;;;;5054335;28;20395;-74
2023/09/28 11:25:42;;;;;;;12.82;2.42;;;22.60;70.90;;;;;;5054074;28;20025;-76
2023/09/28 11:28:08;;;;;;;13.05;3.30;;;;;;;;;;5053781;28;20638;-76
2023/09/28 11:30:34;;;;;;;11.68;2.58;;;;;;;;;;5053852;28;20060;-78
2023/09/28 11:33:04;;;;;;;12.95;3.25;;;22.60;71.00;;;;;;5053568;28;20033;-76
2023/09/28 11:35:31;;;;;;;12.27;3.35;;;22.60;68.30;;;;;;5054139;28;20434;-76
2023/09/28 11:38:03;;;;;;;14.52;3.20;;;22.70;68.90;;;;;;5053712;28;20091;-73
2023/09/28 11:40:29;;;;;;;11.27;2.78;;;;;;;;;;5055106;28;20021;-76
2023/09/28 11:42:57;;;;;;;9.07;3.00;;;22.70;71.30;;;;;;5054837;28;20040;-76
2023/09/28 11:45:33;;;;;;;12.98;2.65;;;22.80;65.50;;;;;;5054789;28;20376;-76
2023/09/28 11:48:05;;;;;;;15.18;3.47;;;22.80;71.10;;;;;;5054755;28;20115;-76
2023/09/28 11:50:32;;;;;;;13.07;2.53;;;;;;;;;;5054843;28;20135;-75
2023/09/28 11:52:59;;;;;;;10.07;2.55;;;;;;;;;;5054832;28;20059;-76
2023/09/28 11:55:26;;;;;;;14.13;3.15;;;;;;;;;;5054653;28;20028;-76
2023/09/28 11:57:57;;;;;;;11.50;2.67;;;22.80;71.10;;;;;;5054628;28;20108;-76
2023/09/28 12:00:24;;;;;;;8.43;1.92;;;;;;;;;;5054917;28;20379;-76
2023/09/28 12:02:50;;;;;;;12.02;3.05;;;;;;;;;;5059439;28;20068;-76
2023/09/28 12:05:17;;;;;;;13.65;2.55;;;;;;;;;;5074404;28;20320;-76
2023/09/28 12:07:43;;;;;;;8.55;2.83;;;;;;;;;;5074217;28;20027;-76
2023/09/28 12:10:14;;;;;;;9.93;2.28;;;22.90;71.20;;;;;;5074027;28;20060;-75
2023/09/28 12:12:57;;;;;;;8.85;2.10;;;;;;;;;;5072425;28;20093;-75
2023/09/28 12:15:24;;;;;;;8.48;2.20;;;;;;;;;;5074197;28;20040;-73
2023/09/28 12:17:50;;;;;;;8.00;2.05;;;;;;;;;;5074432;28;20385;-73
2023/09/28 12:20:17;;;;;;;8.50;2.28;;;;;;;;;;5073137;28;20390;-73
2023/09/28 12:22:43;;;;;;;9.27;2.50;;;;;;;;;;5074314;28;20035;-72
2023/09/28 12:25:10;;;;;;;7.63;2.10;;;22.80;68.50;;;;;;5073924;28;20039;-73
2023/09/28 12:27:37;;;;;;;9.70;2.33;;;;;;;;;;5074076;28;20025;-72
2023/09/28 12:30:04;;;;;;;7.00;2.30;;;23.10;68.20;;;;;;5073955;28;20058;-72
2023/09/28 12:32:31;;;;;;;8.05;1.67;;;23.00;67.80;;;;;;5073801;28;20040;-72
2023/09/28 12:34:59;;;;;;;11.27;2.38;;;;;;;;;;5074203;28;20037;-76
2023/09/28 12:37:26;;;;;;;5.90;1.70;;;;;;;;;;5073983;28;20033;-76
2023/09/28 12:39:53;;;;;;;8.50;2.35;;;;;;;;;;5073650;28;20086;-75
2023/09/28 12:42:25;;;;;;;8.07;2.17;;;23.10;71.00;;;;;;5073448;28;20497;-75
2023/09/28 12:44:51;;;;;;;6.93;2.20;;;;;;;;;;5073889;28;20017;-74
2023/09/28 12:47:21;;;;;;;6.25;1.70;;;;;;;;;;5073509;28;20433;-76
2023/09/28 12:49:47;;;;;;;10.53;2.73;;;23.10;67.90;;;;;;5055443;28;20174;-75
2023/09/28 12:52:13;;;;;;;7.18;2.20;;;;;;;;;;5073828;28;20349;-76
2023/09/28 12:54:39;;;;;;;5.85;1.77;;;;;;;;;;5073340;28;20063;-75
2023/09/28 12:57:07;;;;;;;8.07;2.10;;;;;;;;;;5073509;28;20047;-76
2023/09/28 12:59:33;;;;;;;9.77;2.13;;;;;;;;;;5073405;28;20025;-75
2023/09/28 13:02:01;;;;;;;7.45;2.17;;;;;;;;;;5073349;28;20111;-77
2023/09/28 13:04:27;;;;;;;10.95;2.50;;;;;;;;;;5073117;28;20056;-75
2023/09/28 13:06:53;;;;;;;6.45;2.15;;;;;;;;;;5073200;28;20021;-77
2023/09/28 13:09:20;;;;;;;8.45;2.75;;;;;;;;;;5073241;28;20036;-77
2023/09/28 13:11:47;;;;;;;6.25;1.90;;;;;;;;;;5073213;28;20063;-75
2023/09/28 13:14:14;;;;;;;7.05;2.15;;;;;;;;;;5073269;28;20036;-73
2023/09/28 13:16:40;;;;;;;5.05;1.55;;;;;;;;;;5073387;28;20033;-74
2023/09/28 13:19:08;;;;;;;9.20;3.03;;;;;;;;;;5073357;28;20070;-76
2023/09/28 13:21:35;;;;;;;5.40;1.80;;;;;;;;;;5072974;28;20074;-76
2023/09/28 13:24:02;;;;;;;6.97;1.83;;;;;;;;;;5072916;28;20051;-77
2023/09/28 13:26:33;;;;;;;11.23;2.42;;;;;;;;;;5073127;28;20525;-77
2023/09/28 13:28:58;;;;;;;;;;;23.10;65.50;;;;;;5074214;28;20116;-81
2023/09/28 13:31:25;;;;;;;7.65;2.00;;;;;;;;;;5072723;28;19957;-76
2023/09/28 13:33:51;;;;;;;7.82;2.35;;;;;;;;;;5072946;28;20143;-76
2023/09/28 13:36:19;;;;;;;9.73;2.45;;;;;;;;;;5072832;28;20048;-75
2023/09/28 13:38:49;;;;;;;11.07;2.42;;;;;;;;;;5072761;28;20036;-76
2023/09/28 13:41:16;;;;;;;8.15;2.33;;;;;;;;;;5072899;28;20101;-74
2023/09/28 13:43:45;;;;;;;7.65;2.03;;;;;;;;;;5072427;28;20020;-74
2023/09/28 13:46:11;;;;;;;8.10;1.83;;;;;;;;;;5072515;28;20024;-76
2023/09/28 13:48:37;;;;;;;6.88;2.03;;;;;;;;;;5072376;28;20095;-77
2023/09/28 13:51:04;;;;;;;5.45;1.70;;;;;;;;;;5072303;28;20107;-75
2023/09/28 13:53:30;;;;;;;7.82;2.33;;;;;;;;;;5072277;28;20482;-77
2023/09/28 13:55:56;;;;;;;4.70;1.67;;;;;;;;;;5072673;28;20029;-77
2023/09/28 13:58:23;;;;;;;10.30;2.53;;;23.10;67.80;;;;;;5072185;28;20025;-74
2023/09/28 14:00:50;;;;;;;7.97;2.15;;;23.10;69.40;;;;;;5072538;28;20038;-74
2023/09/28 14:03:16;;;;;;;11.13;2.15;;;;;;;;;;5072314;28;20051;-77
2023/09/28 14:05:43;;;;;;;6.50;1.80;;;;;;;;;;5072347;28;20025;-75
2023/09/28 14:08:11;;;;;;;7.00;1.73;;;;;;;;;;5072462;28;20382;-75
2023/09/28 14:10:38;;;;;;;7.18;2.10;;;;;;;;;;5072025;28;20105;-76